Time;durP1;ratioP1;P1;durP2;ratioP2;P2;SDS_P1;SDS_P2;PMS_P1;PMS_P2;Temp;Humidity;BMP_temperature;BMP_pressure;BME280_temperature;BME280_humidity;BME280_pressure;Samples;Min_cycle;Max_cycle;Signal;HPM_P1;HPM_P2
2021/09/28 00:02:05;;;;;;;19.92;8.98;;;;;;;;;;5092955;28;20202;-80
2021/09/28 00:04:30;;;;;;;20.58;10.00;;;;;;;;;;5092596;28;20036;-81
2021/09/28 00:06:55;;;;;;;18.85;8.43;;;;;;;;;;5092231;28;20494;-80
2021/09/28 00:09:21;;;;;;;21.30;9.93;;;;;;;;;;5092739;28;20032;-79
2021/09/28 00:11:50;;;;;;;19.65;9.70;;;;;;;;;;5093914;28;20044;-81
2021/09/28 00:14:17;;;;;;;19.55;8.65;;;;;;;;;;5091216;28;20036;-81
2021/09/28 00:16:42;;;;;;;20.73;9.63;;;;;;;;;;5092291;28;20046;-81
2021/09/28 00:19:08;;;;;;;15.60;8.90;;;;;;;;;;5091837;28;20032;-80
2021/09/28 00:21:33;;;;;;;19.30;9.70;;;;;;;;;;5091749;28;20089;-80
2021/09/28 00:23:58;;;;;;;18.35;9.50;;;;;;;;;;5092020;28;20050;-80
2021/09/28 00:26:24;;;;;;;18.23;11.80;;;;;;;;;;5092155;28;20040;-81
2021/09/28 00:28:49;;;;;;;20.15;9.35;;;;;;;;;;5092281;28;20028;-81
2021/09/28 00:31:15;;;;;;;19.92;10.07;;;;;;;;;;5092588;28;20040;-79
2021/09/28 00:33:40;;;;;;;20.10;12.13;;;;;;;;;;5093302;28;20028;-80
2021/09/28 00:36:06;;;;;;;21.55;10.95;;;;;;;;;;5092221;28;20485;-80
2021/09/28 00:38:31;;;;;;;19.20;10.43;;;;;;;;;;5092790;28;20086;-80
2021/09/28 00:40:57;;;;;;;17.08;9.95;;;;;;;;;;5093363;28;20126;-79
2021/09/28 00:43:22;;;;;;;20.38;10.45;;;;;;;;;;5092458;28;20028;-80
2021/09/28 00:45:47;;;;;;;17.90;9.95;;;;;;;;;;5091966;28;20062;-80
2021/09/28 00:48:13;;;;;;;19.50;9.70;;;;;;;;;;5090044;28;20085;-80
2021/09/28 00:50:39;;;;;;;19.63;9.15;;;;;;;;;;5069499;28;20035;-80
2021/09/28 00:53:05;;;;;;;22.33;10.32;;;;;;;;;;5069413;28;20603;-80
2021/09/28 00:55:31;;;;;;;20.80;9.15;;;;;;;;;;5071599;28;20036;-81
2021/09/28 00:58:02;;;;;;;19.88;9.82;;;;;;;;;;5070488;28;20493;-80
2021/09/28 01:00:27;;;;;;;20.33;10.10;;;;;;;;;;5070555;28;20466;-80
2021/09/28 01:02:54;;;;;;;18.63;9.35;;;;;;;;;;5071290;28;20071;-79
2021/09/28 01:05:20;;;;;;;16.77;9.07;;;;;;;;;;5069396;28;20139;-79
2021/09/28 01:07:45;;;;;;;15.40;8.90;;;;;;;;;;5071306;28;20281;-80
2021/09/28 01:10:11;;;;;;;19.77;11.57;;;;;;;;;;5070644;28;20040;-80
2021/09/28 01:12:36;;;;;;;16.45;9.68;;;;;;;;;;5070485;28;20466;-79
2021/09/28 01:15:02;;;;;;;21.35;10.55;;;;;;;;;;5070731;28;20040;-82
2021/09/28 01:17:27;;;;;;;21.77;11.10;;;;;;;;;;5071348;28;20032;-79
2021/09/28 01:19:53;;;;;;;20.20;10.23;;;;;;;;;;5070962;28;20508;-79
2021/09/28 01:22:18;;;;;;;19.92;11.55;;;;;;;;;;5070638;28;20143;-78
2021/09/28 01:24:45;;;;;;;20.17;10.65;;;;;;;;;;5070038;28;20040;-79
2021/09/28 01:27:11;;;;;;;16.38;9.77;;;;;;;;;;5068978;28;20035;-80
2021/09/28 01:29:36;;;;;;;18.77;13.00;;;;;;;;;;5070700;28;20119;-80
2021/09/28 01:32:03;;;;;;;17.25;13.32;;;;;;;;;;5070977;28;20121;-80
2021/09/28 01:34:28;;;;;;;18.83;11.15;;;;;;;;;;5071022;28;20044;-81
2021/09/28 01:36:53;;;;;;;16.48;9.80;;;;;;;;;;5071348;28;20563;-82
2021/09/28 01:39:20;;;;;;;18.48;10.15;;;;;;;;;;5071280;28;20028;-84
2021/09/28 01:41:47;;;;;;;16.13;9.85;;;;;;;;;;5070968;28;20036;-80
2021/09/28 01:44:15;;;;;;;16.10;10.00;;;;;;;;;;5069226;28;20044;-80
2021/09/28 01:46:43;;;;;;;17.73;9.20;;;;;;;;;;5070130;28;20028;-80
2021/09/28 01:49:10;;;;;;;20.92;11.02;;;;;;;;;;5078960;28;20127;-80
2021/09/28 01:51:37;;;;;;;17.98;10.15;;;;;;;;;;5091802;28;20044;-80
2021/09/28 01:54:03;;;;;;;18.75;10.85;;;;;;;;;;5091614;28;20052;-80
2021/09/28 01:56:28;;;;;;;17.38;9.82;;;;;;;;;;5091207;28;20028;-79
2021/09/28 01:58:56;;;;;;;17.83;10.50;;;;;;;;;;5090514;28;20483;-80
2021/09/28 02:01:21;;;;;;;16.75;10.45;;;;;;;;;;5089824;28;20028;-78
2021/09/28 02:03:47;;;;;;;16.92;10.18;;;;;;;;;;5091476;28;20492;-79
2021/09/28 02:06:13;;;;;;;16.23;9.98;;;;;;;;;;5091362;28;20120;-81
2021/09/28 02:08:39;;;;;;;19.88;14.23;;;;;;;;;;5091745;28;20143;-80
2021/09/28 02:11:04;;;;;;;20.92;12.73;;;;;;;;;;5107284;28;20567;-81
2021/09/28 02:13:30;;;;;;;18.17;10.23;;;;;;;;;;5091684;28;20124;-80
2021/09/28 02:15:55;;;;;;;21.60;12.75;;;;;;;;;;5091725;28;20496;-80
2021/09/28 02:18:21;;;;;;;19.20;11.57;;;;;;;;;;5091521;28;20493;-80
2021/09/28 02:20:46;;;;;;;16.63;11.13;;;;;;;;;;5090610;28;20397;-80
2021/09/28 02:23:12;;;;;;;17.17;10.88;;;;;;;;;;5091553;28;20036;-79
2021/09/28 02:25:37;;;;;;;18.02;10.32;;;;;;;;;;5092851;28;20028;-80
2021/09/28 02:28:03;;;;;;;15.27;9.45;;;;;;;;;;5091794;28;20028;-82
2021/09/28 02:30:28;;;;;;;17.15;10.23;;;;;;;;;;5091837;28;20374;-80
2021/09/28 02:32:54;;;;;;;18.75;11.15;;;;;;;;;;5091698;28;20062;-80
2021/09/28 02:35:19;;;;;;;20.38;13.48;;;;;;;;;;5092380;28;20160;-80
2021/09/28 02:37:45;;;;;;;20.55;10.50;;;;;;;;;;5095498;28;20032;-80
2021/09/28 02:40:11;;;;;;;21.38;13.70;;;;;;;;;;5094897;28;20040;-81
2021/09/28 02:42:37;;;;;;;17.80;11.00;;;;;;;;;;5098128;28;20039;-80
2021/09/28 02:45:06;;;;;;;21.50;11.77;;;;;;;;;;5100905;28;20036;-80
2021/09/28 02:47:32;;;;;;;19.25;12.32;;;;;;;;;;5094848;28;20492;-81
2021/09/28 02:49:57;;;;;;;19.98;12.63;;;;;;;;;;5079179;28;20024;-80
2021/09/28 02:52:22;;;;;;;21.45;12.77;;;;;;;;;;5083109;28;20398;-81
2021/09/28 02:54:48;;;;;;;17.85;11.30;;;;;;;;;;5080555;28;20063;-80
2021/09/28 02:57:14;;;;;;;23.42;12.00;;;;;;;;;;5086552;28;20051;-82
2021/09/28 02:59:39;;;;;;;19.65;12.50;;;;;;;;;;5088539;28;20098;-80
2021/09/28 03:02:05;;;;;;;20.90;13.30;;;;;;;;;;5090829;28;20051;-82
2021/09/28 03:04:30;;;;;;;26.95;15.50;;;;;;;;;;5089794;28;20048;-80
2021/09/28 03:06:55;;;;;;;27.42;16.02;;;;;;;;;;5089982;28;20032;-81
2021/09/28 03:09:21;;;;;;;24.30;16.10;;;;;;;;;;5089200;28;20039;-81
2021/09/28 03:11:46;;;;;;;22.65;14.32;;;;;;;;;;5083258;28;20040;-80
2021/09/28 03:14:12;;;;;;;27.13;16.75;;;;;;;;;;5102307;28;20516;-78
2021/09/28 03:16:38;;;;;;;27.38;17.65;;;;;;;;;;5086033;28;20036;-79
2021/09/28 03:19:03;;;;;;;27.83;16.45;;;;;;;;;;5081017;28;20108;-79
2021/09/28 03:21:29;;;;;;;25.13;15.25;;;;;;;;;;5078226;28;20681;-82
2021/09/28 03:23:54;;;;;;;25.40;14.07;;;;;;;;;;5077829;28;20032;-80
2021/09/28 03:26:20;;;;;;;19.02;11.35;;;;;;;;;;5082330;28;20247;-81
2021/09/28 03:28:45;;;;;;;17.75;11.90;;;;;;;;;;5097082;28;20056;-82
2021/09/28 03:31:11;;;;;;;21.83;14.45;;;;;;;;;;5081441;28;20033;-79
2021/09/28 03:33:36;;;;;;;17.73;11.30;;;;;;;;;;5085231;28;20021;-81
2021/09/28 03:36:02;;;;;;;22.67;11.00;;;;;;;;;;5084660;28;20032;-83
2021/09/28 03:39:12;;;;;;;17.10;9.73;;;;;;;;;;5083580;28;20039;-83
2021/09/28 03:42:25;;;;;;;16.25;10.32;;;;;;;;;;5058774;28;20029;-82
2021/09/28 03:44:50;;;;;;;18.65;11.57;;;;;;;;;;5065405;28;20043;-81
2021/09/28 03:47:15;;;;;;;14.73;8.70;;;;;;;;;;5068017;28;20037;-80
2021/09/28 03:49:41;;;;;;;16.50;9.43;;;;;;;;;;5081322;28;20036;-80
2021/09/28 03:52:07;;;;;;;19.88;10.25;;;;;;;;;;5084347;28;20032;-80
2021/09/28 03:54:32;;;;;;;16.58;9.68;;;;;;;;;;5080959;28;20086;-79
2021/09/28 03:56:58;;;;;;;16.15;9.90;;;;;;;;;;5083704;28;20036;-83
2021/09/28 03:59:23;;;;;;;16.20;11.82;;;;;;;;;;5081378;28;20482;-81
2021/09/28 04:01:48;;;;;;;16.95;9.77;;;;;;;;;;5077954;28;20056;-79
2021/09/28 04:04:14;;;;;;;21.10;10.10;;;;;;;;;;5073110;28;20044;-78
2021/09/28 04:06:39;;;;;;;19.67;13.23;;;;;;;;;;5074489;28;20106;-82
2021/09/28 04:09:05;;;;;;;18.00;11.20;;;;;;;;;;5075030;28;20025;-82
2021/09/28 04:11:30;;;;;;;19.17;11.35;;;;;;;;;;5074891;28;20043;-82
2021/09/28 04:13:56;;;;;;;23.65;12.77;;;;;;;;;;5075769;28;20036;-82
2021/09/28 04:16:21;;;;;;;21.95;12.45;;;;;;;;;;5073961;28;20032;-82
2021/09/28 04:18:46;;;;;;;26.70;12.80;;;;;;;;;;5074256;28;20048;-81
2021/09/28 04:21:12;;;;;;;27.98;14.77;;;;;;;;;;5074676;28;20454;-83
2021/09/28 04:23:38;;;;;;;22.83;13.63;;;;;;;;;;5074547;28;20028;-83
2021/09/28 04:26:03;;;;;;;25.33;14.35;;;;;;;;;;5074956;28;20066;-82
2021/09/28 04:28:29;;;;;;;22.27;13.70;;;;;;;;;;5074290;28;20500;-82
2021/09/28 04:30:55;;;;;;;22.85;13.55;;;;;;;;;;5073641;28;20036;-82
2021/09/28 04:33:20;;;;;;;23.08;14.93;;;;;;;;;;5073862;28;20369;-84
2021/09/28 04:35:46;;;;;;;22.35;13.50;;;;;;;;;;5079305;28;20062;-83
2021/09/28 04:38:11;;;;;;;21.30;11.90;;;;;;;;;;5081071;28;20105;-82
2021/09/28 04:40:36;;;;;;;19.98;11.05;;;;;;;;;;5078147;28;20039;-80
2021/09/28 04:43:02;;;;;;;19.23;10.02;;;;;;;;;;5077373;28;20072;-80
2021/09/28 04:45:28;;;;;;;15.18;9.52;;;;;;;;;;5072090;28;20040;-80
2021/09/28 04:47:53;;;;;;;15.70;9.00;;;;;;;;;;5070032;28;20482;-80
2021/09/28 04:50:19;;;;;;;16.25;10.23;;;;;;;;;;5052146;28;20033;-81
2021/09/28 04:52:44;;;;;;;15.48;8.75;;;;;;;;;;5050469;28;20036;-81
2021/09/28 04:55:09;;;;;;;15.30;9.48;;;;;;;;;;5049913;28;20080;-80
2021/09/28 04:57:35;;;;;;;13.18;8.27;;;;;;;;;;5052174;28;20049;-80
2021/09/28 05:00:00;;;;;;;16.67;9.10;;;;;;;;;;5067882;28;20075;-80
2021/09/28 05:02:26;;;;;;;13.55;7.93;;;;;;;;;;5057267;28;20406;-81
2021/09/28 05:04:52;;;;;;;13.15;8.32;;;;;;;;;;5057107;28;20494;-81
2021/09/28 05:07:17;;;;;;;11.60;7.85;;;;;;;;;;5052189;28;20040;-82
2021/09/28 05:09:43;;;;;;;11.43;6.80;;;;;;;;;;5049295;28;20486;-81
2021/09/28 05:12:09;;;;;;;12.70;6.68;;;;;;;;;;5052822;28;20036;-82
2021/09/28 05:14:35;;;;;;;10.88;7.28;;;;;;;;;;5054837;28;20033;-84
2021/09/28 05:17:00;;;;;;;11.68;8.95;;;;;;;;;;5056417;28;20028;-85
2021/09/28 05:19:26;;;;;;;11.73;7.00;;;;;;;;;;5061756;28;20044;-80
2021/09/28 05:21:51;;;;;;;14.52;6.97;;;;;;;;;;5054436;28;20032;-82
2021/09/28 05:24:16;;;;;;;14.50;7.20;;;;;;;;;;5052977;28;20033;-81
2021/09/28 05:26:42;;;;;;;9.85;6.22;;;;;;;;;;5050945;28;20098;-79
2021/09/28 05:29:07;;;;;;;12.75;6.60;;;;;;;;;;5060487;28;20492;-80
2021/09/28 05:31:33;;;;;;;11.27;6.28;;;;;;;;;;5048179;28;20494;-80
2021/09/28 05:33:59;;;;;;;8.98;6.25;;;;;;;;;;5050760;28;20036;-81
2021/09/28 05:36:24;;;;;;;9.68;6.20;;;;;;;;;;5050260;28;20069;-81
2021/09/28 05:38:50;;;;;;;8.90;6.18;;;;;;;;;;5050699;28;20059;-80
2021/09/28 05:41:16;;;;;;;10.27;5.97;;;;;;;;;;5051207;28;20033;-81
2021/09/28 05:43:41;;;;;;;15.82;6.57;;;;;;;;;;5050206;28;20489;-81
2021/09/28 05:46:08;;;;;;;12.57;6.53;;;;;;;;;;5052209;28;20044;-82
2021/09/28 05:48:33;;;;;;;10.40;8.30;;;;;;;;;;5056028;28;20409;-83
2021/09/28 05:50:59;;;;;;;9.80;5.82;;;;;;;;;;5070276;28;20032;-84
2021/09/28 05:53:36;;;;;;;10.10;5.40;;;;;;;;;;5069681;28;20424;-81
2021/09/28 05:56:02;;;;;;;8.95;5.97;;;;;;;;;;5071140;28;20044;-81
2021/09/28 05:58:27;;;;;;;10.05;6.38;;;;;;;;;;5071324;28;20037;-82
2021/09/28 06:00:52;;;;;;;11.05;6.45;;;;;;;;;;5070931;28;20032;-82
2021/09/28 06:03:19;;;;;;;7.47;4.43;;;;;;;;;;5071258;28;20497;-84
2021/09/28 06:05:45;;;;;;;11.57;6.50;;;;;;;;;;5062938;28;20413;-83
2021/09/28 06:08:11;;;;;;;10.50;5.45;;;;;;;;;;5087064;28;20028;-82
2021/09/28 06:10:36;;;;;;;11.57;6.25;;;;;;;;;;5072639;28;20048;-83
2021/09/28 06:13:02;;;;;;;11.75;6.75;;;;;;;;;;5073588;28;20032;-81
2021/09/28 06:15:27;;;;;;;9.20;5.78;;;;;;;;;;5075009;28;20032;-82
2021/09/28 06:17:53;;;;;;;13.10;7.28;;;;;;;;;;5073481;28;20059;-84
2021/09/28 06:20:18;;;;;;;12.45;6.95;;;;;;;;;;5077097;28;20074;-86
2021/09/28 06:22:44;;;;;;;12.02;6.70;;;;;;;;;;5075713;28;20031;-81
2021/09/28 06:25:10;;;;;;;10.50;5.97;;;;;;;;;;5075024;28;20040;-84
2021/09/28 06:27:36;;;;;;;6.70;5.05;;;;;;;;;;5073474;28;20033;-84
2021/09/28 06:30:02;;;;;;;7.75;5.43;;;;;;;;;;5074208;28;20048;-85
2021/09/28 06:32:27;;;;;;;9.15;5.50;;;;;;;;;;4973808;28;20068;-83
2021/09/28 06:34:53;;;;;;;11.43;5.60;;;;;;;;;;5075761;28;20075;-83
2021/09/28 06:37:18;;;;;;;9.60;5.30;;;;;;;;;;5075520;28;20036;-82
2021/09/28 06:39:43;;;;;;;7.80;5.28;;;;;;;;;;5074370;28;20040;-85
2021/09/28 06:42:09;;;;;;;10.00;5.43;;;;;;;;;;5074973;28;20564;-81
2021/09/28 06:44:34;;;;;;;9.27;5.05;;;;;;;;;;5074295;28;20036;-82
2021/09/28 06:47:01;;;;;;;5.03;4.05;;;;;;;;;;5071971;28;20113;-83
2021/09/28 06:49:26;;;;;;;7.28;6.03;;;;;;;;;;5059934;28;21023;-84
2021/09/28 06:51:52;;;;;;;6.43;4.68;;;;;;;;;;5056606;28;20063;-84
2021/09/28 06:54:17;;;;;;;7.45;6.60;;;;;;;;;;5072135;28;20052;-83
2021/09/28 06:56:42;;;;;;;9.15;5.07;;;;;;;;;;5072187;28;20028;-80
2021/09/28 06:59:10;;;;;;;7.13;4.85;;;;;;;;;;5071907;28;20093;-81
2021/09/28 07:01:35;;;;;;;8.75;5.43;;;;;;;;;;5070858;28;20056;-82
2021/09/28 07:04:01;;;;;;;8.23;5.75;;;;;;;;;;5071981;28;20036;-83
2021/09/28 07:06:27;;;;;;;6.32;4.32;;;;;;;;;;5067017;28;20041;-81
2021/09/28 07:08:53;;;;;;;6.47;4.70;;;;;;;;;;5071142;28;20032;-81
2021/09/28 07:11:19;;;;;;;6.25;4.30;;;;;;;;;;5071729;28;20032;-80
2021/09/28 07:13:46;;;;;;;6.18;5.03;;;;;;;;;;5072310;28;20028;-81
2021/09/28 07:16:12;;;;;;;7.05;4.97;;;;;;;;;;5071898;28;20043;-83
2021/09/28 07:18:37;;;;;;;7.93;5.57;;;;;;;;;;5071846;28;20486;-83
2021/09/28 07:21:03;;;;;;;7.65;5.15;;;;;;;;;;5071257;28;20040;-83
2021/09/28 07:23:28;;;;;;;6.85;5.25;;;;;;;;;;5071757;28;20032;-84
2021/09/28 07:25:54;;;;;;;6.28;4.53;;;;;;;;;;5071968;28;20040;-83
2021/09/28 07:28:19;;;;;;;7.45;5.25;;;;;;;;;;5071805;28;20139;-82
2021/09/28 07:30:45;;;;;;;7.28;5.38;;;;;;;;;;5071888;28;20571;-82
2021/09/28 07:33:10;;;;;;;8.38;5.07;;;;;;;;;;5072492;28;20130;-81
2021/09/28 07:35:36;;;;;;;9.18;4.93;;;;;;;;;;5072261;28;20072;-82
2021/09/28 07:38:01;;;;;;;8.73;6.13;;;;;;;;;;5072201;28;20043;-82
2021/09/28 07:40:27;;;;;;;10.13;5.68;;;;;;;;;;5071581;28;20040;-83
2021/09/28 07:42:52;;;;;;;8.50;6.18;;;;;;;;;;5070965;28;20655;-82
2021/09/28 07:45:18;;;;;;;8.45;5.65;;;;;;;;;;5072166;28;20086;-82
2021/09/28 07:47:44;;;;;;;11.27;6.63;;;;;;;;;;5071686;28;20068;-81
2021/09/28 07:50:10;;;;;;;6.72;4.95;;;;;;;;;;5072315;28;20042;-82
2021/09/28 07:52:35;;;;;;;7.57;4.35;;;;;;;;;;5071744;28;20033;-81
2021/09/28 07:55:01;;;;;;;6.90;5.18;;;;;;;;;;5072309;28;20563;-81
2021/09/28 07:57:26;;;;;;;6.00;4.28;;;;;;;;;;5072290;28;20115;-81
2021/09/28 07:59:54;;;;;;;8.85;5.15;;;;;;;;;;5072155;28;20067;-82
2021/09/28 08:02:20;;;;;;;5.25;3.35;;;;;;;;;;5070519;28;20028;-81
2021/09/28 08:04:46;;;;;;;7.43;5.57;;;;;;;;;;5070782;28;20036;-80
2021/09/28 08:07:17;;;;;;;6.53;4.55;;;;;;;;;;5070419;28;20405;-82
2021/09/28 08:09:42;;;;;;;7.65;5.07;;;;;;;;;;5086127;28;20131;-80
2021/09/28 08:12:08;;;;;;;6.82;5.80;;;;;;;;;;5069990;28;20132;-81
2021/09/28 08:14:34;;;;;;;8.70;5.50;;;;;;;;;;5067062;28;20062;-81
2021/09/28 08:16:59;;;;;;;6.88;4.53;;;;;;;;;;5071757;28;20452;-81
2021/09/28 08:19:25;;;;;;;8.73;5.00;;;;;;;;;;5067025;28;20032;-81
2021/09/28 08:21:53;;;;;;;6.75;5.07;;;;;;;;;;5072028;28;20043;-79
2021/09/28 08:24:19;;;;;;;8.95;6.05;;;;;;;;;;5071250;28;20033;-80
2021/09/28 08:29:30;;;;;;;7.07;4.63;;;;;;;;;;5072059;28;20075;-79
2021/09/28 08:31:56;;;;;;;7.95;4.72;;;;;;;;;;5071581;28;20060;-79
2021/09/28 08:34:34;;;;;;;7.28;5.75;;;;;;;;;;5068675;28;20055;-79
2021/09/28 08:37:04;;;;;;;7.82;4.78;;;;;;;;;;5072311;28;20566;-79
2021/09/28 08:39:41;;;;;;;7.75;4.60;;;;;;;;;;5071186;28;20041;-80
2021/09/28 08:42:07;;;;;;;7.70;4.57;;;;;;;;;;5071380;28;20128;-78
2021/09/28 08:44:32;;;;;;;7.00;5.07;;;;;;;;;;5071172;28;20503;-82
2021/09/28 08:46:58;;;;;;;8.60;4.13;;;;;;;;;;5063528;28;20040;-81
2021/09/28 08:49:23;;;;;;;7.75;4.50;;;;;;;;;;5049705;28;20517;-80
2021/09/28 08:51:50;;;;;;;6.13;4.13;;;;;;;;;;5049807;28;20060;-81
2021/09/28 08:54:17;;;;;;;8.60;5.35;;;;;;;;;;5049173;28;20065;-81
2021/09/28 08:56:43;;;;;;;8.48;4.40;;;;;;;;;;5049924;28;20555;-80
2021/09/28 08:59:10;;;;;;;7.53;4.45;;;;;;;;;;5048409;28;20135;-80
2021/09/28 09:01:52;;;;;;;6.00;4.45;;;;;;;;;;5049276;28;20566;-80
2021/09/28 09:04:20;;;;;;;5.97;4.95;;;;;;;;;;5048691;28;20037;-82
2021/09/28 09:06:45;;;;;;;5.65;4.18;;;;;;;;;;5049506;28;20044;-82
2021/09/28 09:09:12;;;;;;;6.88;4.32;;;;;;;;;;5049766;28;20048;-80
2021/09/28 09:11:41;;;;;;;7.72;4.47;;;;;;;;;;5048649;28;20028;-81
2021/09/28 09:14:21;;;;;;;6.80;4.20;;;;;;;;;;5050166;28;20087;-81
2021/09/28 09:16:50;;;;;;;7.78;4.57;;;;;;;;;;5050527;28;20129;-80
2021/09/28 09:19:29;;;;;;;8.32;4.70;;;;;;;;;;5065404;28;20464;-81
2021/09/28 09:22:02;;;;;;;6.70;4.93;;;;;;;;;;5048778;28;20032;-81
2021/09/28 09:24:49;;;;;;;6.50;3.90;;;;;;;;;;5047618;28;20056;-82
2021/09/28 09:27:28;;;;;;;11.32;5.05;;;;;;;;;;5048352;28;20040;-80
2021/09/28 09:30:13;;;;;;;7.70;5.30;;;;;;;;;;5065518;28;20068;-82
2021/09/28 09:32:57;;;;;;;10.13;5.22;;;;;;;;;;5050081;28;20087;-82
2021/09/28 09:35:33;;;;;;;8.40;4.90;;;;;;;;;;5049706;28;20106;-81
2021/09/28 09:38:11;;;;;;;12.15;4.60;;;;;;;;;;5050741;28;20040;-81
2021/09/28 09:40:43;;;;;;;6.90;3.88;;;;;;;;;;5050894;28;20037;-81
2021/09/28 09:43:10;;;;;;;7.05;4.32;;;;;;;;;;5051058;28;20132;-80
2021/09/28 09:45:36;;;;;;;7.95;4.72;;;;;;;;;;5050162;28;20037;-80
2021/09/28 09:48:25;;;;;;;8.00;4.68;;;;;;;;;;5051189;28;20098;-80
2021/09/28 09:51:06;;;;;;;12.18;6.22;;;;;;;;;;5050856;28;20395;-83
2021/09/28 09:53:33;;;;;;;10.00;5.07;;;;;;;;;;5052295;28;20061;-84
2021/09/28 09:56:00;;;;;;;10.70;4.60;;;;;;;;;;5050885;28;20098;-82
2021/09/28 09:58:25;;;;;;;10.80;4.65;;;;;;;;;;5051896;28;20048;-80
2021/09/28 10:00:55;;;;;;;8.57;4.40;;;;;;;;;;5052747;28;20131;-81
2021/09/28 10:03:21;;;;;;;9.35;4.68;;;;;;;;;;5053184;28;20533;-80
2021/09/28 10:05:46;;;;;;;10.80;4.78;;;;;;;;;;5052476;28;20068;-83
2021/09/28 10:08:14;;;;;;;9.55;4.57;;;;;;;;;;5051401;28;20032;-80
2021/09/28 10:10:42;;;;;;;11.85;4.85;;;;;;;;;;5050990;28;20040;-81
2021/09/28 10:13:27;;;;;;;8.82;4.32;;;;;;;;;;5048454;28;20037;-81
2021/09/28 10:16:27;;;;;;;15.52;6.95;;;;;;;;;;5050334;28;20036;-80
2021/09/28 10:18:53;;;;;;;14.27;5.43;;;;;;;;;;5049870;28;20065;-82
2021/09/28 10:21:37;;;;;;;8.05;4.53;;;;;;;;;;5050571;28;20063;-82
2021/09/28 10:24:18;;;;;;;10.95;4.65;;;;;;;;;;5050432;28;20087;-84
2021/09/28 10:27:03;;;;;;;7.93;4.05;;;;;;;;;;5065924;28;20036;-85
2021/09/28 10:29:45;;;;;;;7.03;3.55;;;;;;;;;;5050195;28;20039;-82
2021/09/28 10:32:27;;;;;;;;;;;;;;;;;;5051058;28;20123;-83
2021/09/28 10:35:04;;;;;;;10.02;4.13;;;;;;;;;;5066619;28;20504;-81
2021/09/28 10:37:42;;;;;;;10.38;4.65;;;;;;;;;;5051038;28;20040;-81
2021/09/28 10:40:14;;;;;;;7.28;4.97;;;;;;;;;;5050841;28;20045;-84
2021/09/28 10:42:50;;;;;;;10.63;5.47;;;;;;;;;;5050230;28;20029;-83
2021/09/28 10:45:39;;;;;;;7.47;4.43;;;;;;;;;;5050797;28;20065;-81
2021/09/28 10:48:23;;;;;;;7.80;4.50;;;;;;;;;;5057809;28;20041;-82
2021/09/28 10:51:04;;;;;;;9.15;4.78;;;;;;;;;;5069361;28;20049;-82
2021/09/28 10:53:30;;;;;;;8.05;4.85;;;;;;;;;;5070520;28;20134;-85
2021/09/28 10:56:14;;;;;;;8.57;5.28;;;;;;;;;;5071057;28;20440;-85
2021/09/28 10:58:54;;;;;;;7.97;5.47;;;;;;;;;;5075706;28;20511;-86
2021/09/28 11:01:22;;;;;;;10.13;3.92;;;;;;;;;;5082636;28;20020;-82
2021/09/28 11:03:57;;;;;;;9.40;6.10;;;;;;;;;;5082401;28;20048;-84
2021/09/28 11:06:40;;;;;;;8.35;4.75;;;;;;;;;;5083200;28;20085;-83
2021/09/28 11:09:07;;;;;;;9.43;5.93;;;;;;;;;;5079104;28;20040;-81
2021/09/28 11:11:32;;;;;;;11.73;5.40;;;;;;;;;;5083049;28;20046;-81
2021/09/28 11:14:03;;;;;;;12.18;6.05;;;;;;;;;;5082883;28;20100;-80
2021/09/28 11:16:37;;;;;;;7.00;4.38;;;;;;;;;;5081854;28;20032;-82
2021/09/28 11:19:03;;;;;;;9.07;3.67;;;;;;;;;;5078366;28;20050;-82
2021/09/28 11:21:28;;;;;;;7.03;3.70;;;;;;;;;;5073563;28;20111;-82
2021/09/28 11:23:55;;;;;;;9.93;4.20;;;;;;;;;;5073880;28;20032;-82
2021/09/28 11:26:37;;;;;;;9.27;4.75;;;;;;;;;;5075061;28;20040;-82
2021/09/28 11:29:04;;;;;;;5.93;4.13;;;;;;;;;;5074665;28;20177;-83
2021/09/28 11:31:35;;;;;;;11.18;3.88;;;;;;;;;;5076234;28;20447;-84
2021/09/28 11:34:00;;;;;;;10.15;4.22;;;;;;;;;;5080775;28;20055;-83
2021/09/28 11:36:32;;;;;;;7.18;4.40;;;;;;;;;;5075992;28;20493;-84
2021/09/28 11:38:58;;;;;;;5.93;4.32;;;;;;;;;;5076394;28;20051;-83
2021/09/28 11:41:23;;;;;;;7.88;3.97;;;;;;;;;;5075631;28;20036;-80
2021/09/28 11:43:57;;;;;;;8.10;3.60;;;;;;;;;;5076206;28;20083;-81
2021/09/28 11:46:27;;;;;;;9.60;3.80;;;;;;;;;;5070094;28;20032;-83
2021/09/28 11:51:25;;;;;;;7.55;3.40;;;;;;;;;;4954519;29;20066;-80
2021/09/28 11:54:12;;;;;;;9.38;3.65;;;;;;;;;;4955165;29;20031;-81
2021/09/28 11:56:41;;;;;;;10.05;5.35;;;;;;;;;;4937518;29;20042;-79
2021/09/28 11:59:12;;;;;;;9.80;4.63;;;;;;;;;;4980665;23;20144;-82
2021/09/28 12:01:41;;;;;;;6.97;4.10;;;;;;;;;;4991890;28;20046;-82
2021/09/28 12:07:21;;;;;;;6.55;4.65;;;;;;;;;;4992334;28;20117;-80
2021/09/28 12:09:49;;;;;;;10.90;4.63;;;;;;;;;;4974476;28;20528;-80
2021/09/28 12:12:17;;;;;;;10.65;5.05;;;;;;;;;;4991799;28;20182;-81
2021/09/28 12:14:46;;;;;;;8.38;3.65;;;;;;;;;;4974784;28;20416;-81
2021/09/28 12:17:17;;;;;;;7.70;4.18;;;;;;;;;;4975024;28;20074;-82
2021/09/28 12:19:47;;;;;;;6.75;3.78;;;;;;;;;;4992530;28;20046;-82
2021/09/28 12:22:13;;;;;;;;;;;;;;;;;;4993327;28;20037;-81
2021/09/28 12:24:49;;;;;;;6.28;4.18;;;;;;;;;;4974321;28;19929;-80
2021/09/28 12:27:15;;;;;;;5.03;3.72;;;;;;;;;;4990855;28;20043;-81
2021/09/28 12:29:44;;;;;;;10.13;5.55;;;;;;;;;;4992077;28;20487;-81
2021/09/28 12:32:21;;;;;;;7.60;4.43;;;;;;;;;;4992334;28;20500;-79
2021/09/28 12:34:57;;;;;;;8.07;4.60;;;;;;;;;;4991741;28;20106;-80
2021/09/28 12:37:26;;;;;;;7.70;3.80;;;;;;;;;;4992507;28;20034;-80
2021/09/28 12:40:03;;;;;;;10.05;4.60;;;;;;;;;;4975434;28;20041;-83
2021/09/28 12:42:29;;;;;;;11.02;4.68;;;;;;;;;;4992230;28;20480;-80
2021/09/28 12:44:58;;;;;;;10.15;4.80;;;;;;;;;;4991530;28;20060;-79
2021/09/28 12:47:24;;;;;;;9.07;4.90;;;;;;;;;;4981868;28;20030;-79
2021/09/28 12:49:50;;;;;;;8.20;3.83;;;;;;;;;;4990500;28;20119;-80
2021/09/28 12:52:15;;;;;;;9.57;4.60;;;;;;;;;;4991147;28;20069;-80
2021/09/28 12:54:41;;;;;;;9.45;4.45;;;;;;;;;;4990946;28;20026;-79
2021/09/28 12:57:06;;;;;;;7.10;3.95;;;;;;;;;;4990369;28;20355;-78
2021/09/28 12:59:32;;;;;;;9.00;3.80;;;;;;;;;;4990848;28;20057;-79
2021/09/28 13:01:57;;;;;;;9.60;5.75;;;;;;;;;;4990773;28;20026;-80
2021/09/28 13:04:22;;;;;;;8.73;4.60;;;;;;;;;;4991115;28;20043;-80
2021/09/28 13:06:55;;;;;;;8.88;3.72;;;;;;;;;;4989722;28;20038;-79
2021/09/28 13:09:20;;;;;;;8.43;4.78;;;;;;;;;;4990588;28;20138;-78
2021/09/28 13:11:46;;;;;;;9.32;4.63;;;;;;;;;;4990053;28;20541;-79
2021/09/28 13:14:11;;;;;;;7.93;4.70;;;;;;;;;;4990037;28;20117;-80
2021/09/28 13:16:37;;;;;;;6.18;4.00;;;;;;;;;;4991022;28;20034;-80
2021/09/28 13:19:03;;;;;;;9.85;4.63;;;;;;;;;;4989949;28;20407;-80
2021/09/28 13:21:28;;;;;;;7.22;3.95;;;;;;;;;;4990442;28;20754;-80
2021/09/28 13:23:54;;;;;;;8.27;5.15;;;;;;;;;;4990417;28;20038;-81
2021/09/28 13:26:19;;;;;;;6.68;4.03;;;;;;;;;;4990945;28;20034;-78
2021/09/28 13:28:44;;;;;;;10.55;5.45;;;;;;;;;;4990427;28;20037;-81
2021/09/28 13:31:10;;;;;;;7.70;4.43;;;;;;;;;;4991084;28;20490;-79
2021/09/28 13:33:35;;;;;;;7.95;4.75;;;;;;;;;;4991086;28;20042;-80
2021/09/28 13:36:01;;;;;;;12.20;5.72;;;;;;;;;;4989662;28;20030;-79
2021/09/28 13:38:26;;;;;;;10.95;4.70;;;;;;;;;;4990907;28;20066;-81
2021/09/28 13:40:52;;;;;;;9.27;3.80;;;;;;;;;;4990144;28;20041;-81
2021/09/28 13:43:17;;;;;;;8.73;4.45;;;;;;;;;;4989751;28;20034;-81
2021/09/28 13:45:43;;;;;;;9.13;4.90;;;;;;;;;;4990190;28;20030;-80
2021/09/28 13:48:12;;;;;;;11.00;4.88;;;;;;;;;;4989730;28;20066;-81
2021/09/28 13:50:39;;;;;;;9.38;4.25;;;;;;;;;;4990061;28;20037;-80
2021/09/28 13:53:05;;;;;;;8.30;4.05;;;;;;;;;;4990669;28;20061;-82
2021/09/28 13:55:31;;;;;;;9.82;4.43;;;;;;;;;;4989587;28;20114;-82
2021/09/28 13:57:57;;;;;;;16.13;4.13;;;;;;;;;;4990454;28;20065;-82
2021/09/28 14:00:22;;;;;;;9.27;4.10;;;;;;;;;;4990061;28;20144;-81
2021/09/28 14:02:48;;;;;;;7.43;5.00;;;;;;;;;;4989680;28;20077;-83
2021/09/28 14:05:13;;;;;;;8.10;3.63;;;;;;;;;;4989586;28;20034;-81
2021/09/28 14:07:39;;;;;;;5.90;4.03;;;;;;;;;;4990814;28;20492;-81
2021/09/28 14:10:06;;;;;;;5.80;3.90;;;;;;;;;;4990723;28;20492;-81
2021/09/28 14:12:32;;;;;;;8.88;5.70;;;;;;;;;;4991243;28;20038;-83
2021/09/28 14:14:59;;;;;;;12.88;5.82;;;;;;;;;;4991470;28;20049;-86
2021/09/28 14:17:24;;;;;;;5.20;3.38;;;;;;;;;;4991183;28;20337;-83
2021/09/28 14:19:49;;;;;;;9.93;4.25;;;;;;;;;;4991561;28;20038;-81
2021/09/28 14:22:15;;;;;;;9.10;4.10;;;;;;;;;;4991166;28;20034;-86
2021/09/28 14:24:41;;;;;;;8.23;3.97;;;;;;;;;;4993309;28;20184;-87
2021/09/28 14:27:07;;;;;;;7.75;3.60;;;;;;;;;;4994809;28;20117;-82
2021/09/28 14:29:33;;;;;;;7.30;3.75;;;;;;;;;;4994101;28;20061;-83
2021/09/28 14:31:58;;;;;;;11.88;4.70;;;;;;;;;;4993893;28;20458;-83
2021/09/28 14:34:24;;;;;;;7.00;3.83;;;;;;;;;;4995671;28;20038;-85
2021/09/28 14:36:49;;;;;;;8.68;4.00;;;;;;;;;;4995401;28;20042;-84
2021/09/28 14:39:15;;;;;;;11.15;4.20;;;;;;;;;;4998704;28;20038;-84
2021/09/28 14:41:40;;;;;;;10.00;4.00;;;;;;;;;;4999115;28;20038;-85
2021/09/28 14:44:06;;;;;;;10.77;5.32;;;;;;;;;;4997728;28;20042;-87
2021/09/28 14:46:33;;;;;;;10.10;4.43;;;;;;;;;;4997109;28;20046;-83